createdAt,value
2018-09-12T00:01:45.010Z,20.34
2018-09-12T00:06:28.618Z,20.25
2018-09-12T00:11:12.020Z,19.95
2018-09-12T00:15:55.697Z,19.90
2018-09-12T00:20:39.228Z,19.86
2018-09-12T00:25:22.945Z,19.71
2018-09-12T00:30:06.268Z,19.70
2018-09-12T00:34:53.445Z,19.49
2018-09-12T00:39:36.919Z,19.11
2018-09-12T00:44:20.392Z,19.21
2018-09-12T00:49:04.067Z,19.35
2018-09-12T00:53:47.560Z,19.43
2018-09-12T00:58:31.124Z,19.43
2018-09-12T01:03:14.634Z,19.34
2018-09-12T01:07:58.009Z,19.25
2018-09-12T01:12:41.422Z,19.36
2018-09-12T01:17:26.007Z,19.21
2018-09-12T01:22:11.028Z,19.26
2018-09-12T01:26:54.773Z,19.31
2018-09-12T01:31:38.312Z,19.30
2018-09-12T01:36:22.840Z,19.02
2018-09-12T01:41:06.358Z,19.02
2018-09-12T01:45:50.866Z,19.09
2018-09-12T01:50:34.275Z,19.24
2018-09-12T01:55:21.562Z,19.30
2018-09-12T02:00:05.596Z,19.26
2018-09-12T02:04:52.118Z,19.31
2018-09-12T02:09:35.644Z,19.24
2018-09-12T02:14:19.057Z,19.26
2018-09-12T02:19:03.254Z,19.30
2018-09-12T02:23:46.704Z,19.22
2018-09-12T02:28:30.414Z,19.20
2018-09-12T02:33:13.852Z,19.12
2018-09-12T02:38:01.034Z,19.20
2018-09-12T02:42:44.487Z,19.09
2018-09-12T02:47:33.365Z,18.99
2018-09-12T02:52:16.879Z,18.79
2018-09-12T02:57:00.520Z,18.89
2018-09-12T03:01:43.925Z,18.86
2018-09-12T03:06:27.554Z,18.80
2018-09-12T03:11:11.070Z,18.85
2018-09-12T03:15:57.529Z,18.69
2018-09-12T03:20:41.010Z,18.68
2018-09-12T03:25:24.998Z,18.61
2018-09-12T03:30:08.416Z,18.64
2018-09-12T03:34:53.084Z,18.57
2018-09-12T03:39:36.515Z,18.56
2018-09-12T03:44:21.169Z,18.44
2018-09-12T03:49:04.735Z,18.55
2018-09-12T03:53:48.122Z,18.59
2018-09-12T03:58:31.609Z,18.77
2018-09-12T04:03:15.039Z,18.73
2018-09-12T04:07:58.684Z,18.85
2018-09-12T04:12:42.133Z,18.91
2018-09-12T04:17:31.438Z,18.81
2018-09-12T04:22:14.916Z,18.83
2018-09-12T04:26:58.616Z,18.67
2018-09-12T04:31:41.921Z,18.86
2018-09-12T04:36:26.459Z,18.78
2018-09-12T04:41:09.883Z,18.73
2018-09-12T04:45:56.380Z,18.73
2018-09-12T04:50:39.682Z,18.81
2018-09-12T04:55:23.297Z,18.83
2018-09-12T05:00:06.756Z,18.99
2018-09-12T05:04:54.557Z,18.97
2018-09-12T05:09:38.323Z,19.04
2018-09-12T05:14:25.349Z,19.14
2018-09-12T05:19:09.490Z,19.23
2018-09-12T05:23:53.093Z,19.30
2018-09-12T05:28:38.246Z,19.27
2018-09-12T05:33:21.502Z,19.26
2018-09-12T05:38:06.465Z,19.15
2018-09-12T05:42:50.521Z,19.32
2018-09-12T05:47:35.012Z,19.40
2018-09-12T05:52:18.370Z,19.45
2018-09-12T05:57:05.377Z,19.43
2018-09-12T06:01:49.500Z,19.47
2018-09-12T06:06:36.388Z,19.52
2018-09-12T06:11:19.755Z,19.69
2018-09-12T06:16:04.263Z,19.60
2018-09-12T06:20:47.790Z,19.61
2018-09-12T06:25:32.323Z,19.70
2018-09-12T06:30:15.788Z,19.81
2018-09-12T06:35:00.253Z,19.88
2018-09-12T06:39:43.751Z,19.87
2018-09-12T06:44:32.952Z,19.75
2018-09-12T06:49:16.380Z,19.92
2018-09-12T06:54:02.692Z,19.96
2018-09-12T06:58:46.047Z,20.20
2018-09-12T07:03:32.841Z,20.38
2018-09-12T07:08:19.970Z,20.37
2018-09-12T07:13:03.319Z,20.41
2018-09-12T07:17:49.895Z,20.66
2018-09-12T07:22:33.478Z,21.18
2018-09-12T07:27:17.820Z,21.11
2018-09-12T07:32:01.247Z,20.99
2018-09-12T07:36:48.411Z,20.99
2018-09-12T07:41:31.776Z,21.09
2018-09-12T07:46:18.676Z,21.23
2018-09-12T07:51:02.220Z,21.31
2018-09-12T07:55:49.297Z,21.28
2018-09-12T08:00:32.855Z,21.27
2018-09-12T08:05:19.730Z,21.38
2018-09-12T08:10:03.214Z,21.35
2018-09-12T08:14:50.168Z,21.45
2018-09-12T08:19:33.748Z,21.36
2018-09-12T08:24:20.802Z,21.53
2018-09-12T08:29:04.285Z,21.72
2018-09-12T08:33:51.328Z,22.03
2018-09-12T08:38:35.327Z,22.13
2018-09-12T08:43:19.772Z,22.15
2018-09-12T08:48:03.393Z,22.38
2018-09-12T08:52:48.193Z,22.28
2018-09-12T08:57:31.646Z,22.12
2018-09-12T09:02:14.997Z,22.23
2018-09-12T09:06:59.583Z,22.32
2018-09-12T09:11:43.732Z,22.48
2018-09-12T09:16:28.070Z,22.57
2018-09-12T09:21:11.568Z,22.40
2018-09-12T09:25:56.135Z,22.44
2018-09-12T09:30:39.528Z,22.45
2018-09-12T09:35:24.104Z,22.85
2018-09-12T09:40:08.372Z,23.06
2018-09-12T09:44:55.195Z,23.14
2018-09-12T09:49:38.972Z,23.44
2018-09-12T09:54:22.672Z,23.54
2018-09-12T09:59:05.874Z,23.28
2018-09-12T10:03:54.888Z,23.10
2018-09-12T10:08:43.679Z,23.11
2018-09-12T10:13:28.320Z,23.95
2018-09-12T10:18:11.939Z,24.39
2018-09-12T10:22:55.581Z,24.18
2018-09-12T10:27:39.303Z,24.00
2018-09-12T10:32:22.665Z,23.70
2018-09-12T10:37:11.012Z,24.02
2018-09-12T10:41:54.341Z,23.64
2018-09-12T10:46:41.973Z,23.39
2018-09-12T10:51:25.503Z,23.49
2018-09-12T10:56:12.154Z,23.75
2018-09-12T11:00:56.651Z,24.48
2018-09-12T11:05:45.069Z,24.98
2018-09-12T11:10:28.699Z,25.18
2018-09-12T11:15:16.289Z,24.93
2018-09-12T11:19:59.727Z,25.01
2018-09-12T11:24:44.522Z,25.01
2018-09-12T11:29:28.006Z,24.95
2018-09-12T11:34:15.785Z,25.01
2018-09-12T11:38:59.128Z,24.85
2018-09-12T11:43:42.867Z,24.81
2018-09-12T11:48:26.283Z,24.55
2018-09-12T11:53:14.294Z,24.27
2018-09-12T11:57:57.853Z,24.77
2018-09-12T12:02:41.730Z,24.66
2018-09-12T12:07:26.584Z,24.68
2018-09-12T12:12:10.109Z,25.04
2018-09-12T12:16:55.545Z,25.24
2018-09-12T12:21:39.136Z,24.92
2018-09-12T12:26:26.148Z,24.92
2018-09-12T12:31:09.644Z,24.74
2018-09-12T12:35:54.244Z,24.61
2018-09-12T12:40:37.711Z,24.41
2018-09-12T12:45:22.220Z,24.46
2018-09-12T12:50:05.820Z,24.23
2018-09-12T12:54:50.332Z,24.28
2018-09-12T12:59:34.320Z,24.30
2018-09-12T13:04:17.855Z,24.29
2018-09-12T13:09:01.411Z,24.24
2018-09-12T13:13:46.969Z,24.15
2018-09-12T13:18:31.717Z,24.73
2018-09-12T13:23:16.427Z,24.83
2018-09-12T13:28:00.079Z,25.47
2018-09-12T13:32:43.389Z,24.59
2018-09-12T13:37:26.859Z,24.46
2018-09-12T13:42:10.905Z,24.12
2018-09-12T13:46:55.368Z,24.21
2018-09-12T13:51:38.648Z,24.13
2018-09-12T13:56:35.708Z,23.92
2018-09-12T14:01:19.209Z,23.60
2018-09-12T14:06:06.503Z,23.64
2018-09-12T14:10:49.920Z,24.18
2018-09-12T14:15:34.251Z,24.22
2018-09-12T14:20:17.632Z,24.25
2018-09-12T14:25:01.264Z,23.96
2018-09-12T14:29:44.623Z,23.89
2018-09-12T14:34:31.113Z,23.69
2018-09-12T14:39:14.687Z,23.80
2018-09-12T14:43:59.156Z,23.71
2018-09-12T14:48:42.961Z,23.47
2018-09-12T14:53:26.689Z,23.25
2018-09-12T14:58:10.271Z,23.38
2018-09-12T15:02:57.486Z,23.31
2018-09-12T15:07:40.768Z,23.29
2018-09-12T15:12:24.235Z,23.22
2018-09-12T15:17:11.686Z,23.24
2018-09-12T15:21:55.060Z,23.14
2018-09-12T15:26:38.659Z,22.91
2018-09-12T15:31:22.453Z,23.08
2018-09-12T15:36:09.685Z,23.01
2018-09-12T15:40:53.089Z,22.93
2018-09-12T15:45:36.941Z,22.72
2018-09-12T15:50:22.696Z,22.77
2018-09-12T15:55:09.535Z,22.75
2018-09-12T15:59:52.962Z,22.72
2018-09-12T16:04:40.942Z,22.53
2018-09-12T16:09:24.385Z,22.64
2018-09-12T16:14:08.778Z,22.71
2018-09-12T16:18:58.234Z,22.70
2018-09-12T16:23:45.635Z,22.69
2018-09-12T16:28:29.173Z,22.64
2018-09-12T16:33:16.635Z,22.83
2018-09-12T16:38:00.037Z,22.67
2018-09-12T16:42:44.682Z,22.07
2018-09-12T16:47:28.155Z,21.87
2018-09-12T16:52:11.489Z,22.07
2018-09-12T16:56:55.518Z,21.91
2018-09-12T17:01:38.994Z,21.89
2018-09-12T17:06:23.450Z,21.78
2018-09-12T17:11:06.939Z,21.79
2018-09-12T17:15:51.691Z,21.81
2018-09-12T17:20:35.683Z,21.75
2018-09-12T17:25:26.683Z,21.63
2018-09-12T17:30:10.236Z,21.53
2018-09-12T17:34:55.410Z,21.52
2018-09-12T17:39:39.002Z,21.35
2018-09-12T17:44:22.389Z,21.35
2018-09-12T17:49:06.223Z,21.30
2018-09-12T17:53:50.744Z,21.31
2018-09-12T17:58:42.312Z,21.22
2018-09-12T18:03:26.818Z,21.29
2018-09-12T18:08:21.773Z,21.25
2018-09-12T18:13:06.762Z,21.35
2018-09-12T18:17:50.201Z,21.33
2018-09-12T18:22:33.692Z,21.27
2018-09-12T18:27:17.917Z,21.50
2018-09-12T18:32:01.388Z,21.51
2018-09-12T18:36:44.963Z,21.54
2018-09-12T18:41:29.767Z,21.59
2018-09-12T18:46:14.192Z,21.63
2018-09-12T18:50:57.748Z,21.61
2018-09-12T18:55:44.876Z,21.51
2018-09-12T19:00:28.981Z,21.39
2018-09-12T19:05:12.398Z,21.41
2018-09-12T19:09:55.938Z,21.39
2018-09-12T19:14:40.444Z,21.38
2018-09-12T19:19:24.225Z,21.26
2018-09-12T19:24:07.708Z,21.24
2018-09-12T19:28:51.285Z,21.29
2018-09-12T19:33:35.820Z,21.35
2018-09-12T19:38:19.242Z,21.29
2018-09-12T19:43:03.347Z,21.20
2018-09-12T19:47:46.697Z,21.03
2018-09-12T19:52:30.206Z,20.93
2018-09-12T19:57:17.193Z,20.89
2018-09-12T20:02:00.640Z,20.86
2018-09-12T20:06:43.999Z,20.87
2018-09-12T20:11:27.456Z,20.93
2018-09-12T20:16:11.914Z,20.90
2018-09-12T20:20:55.395Z,20.75
2018-09-12T20:25:40.741Z,20.92
2018-09-12T20:30:24.287Z,20.72
2018-09-12T20:35:09.074Z,20.69
2018-09-12T20:39:52.494Z,20.47
2018-09-12T20:44:37.692Z,20.20
2018-09-12T20:49:20.963Z,19.92
2018-09-12T20:54:13.311Z,19.84
2018-09-12T20:58:56.800Z,20.22
2018-09-12T21:03:40.387Z,20.40
2018-09-12T21:08:23.695Z,20.33
2018-09-12T21:13:07.345Z,20.18
2018-09-12T21:17:51.198Z,19.95
2018-09-12T21:22:34.593Z,19.79
2018-09-12T21:27:17.790Z,19.74
2018-09-12T21:32:02.130Z,19.98
2018-09-12T21:36:45.597Z,20.14
2018-09-12T21:41:29.047Z,19.91
2018-09-12T21:46:12.657Z,19.82
2018-09-12T21:50:55.933Z,19.87
2018-09-12T21:55:39.451Z,20.08
2018-09-12T22:00:22.828Z,20.09
2018-09-12T22:05:07.312Z,20.06
2018-09-12T22:09:50.690Z,20.18
2018-09-12T22:14:34.318Z,20.25
2018-09-12T22:19:17.780Z,20.23
2018-09-12T22:24:02.009Z,20.16
2018-09-12T22:28:45.450Z,20.15
2018-09-12T22:33:28.931Z,20.07
2018-09-12T22:38:13.109Z,20.14
2018-09-12T22:42:56.713Z,20.00
2018-09-12T22:47:40.075Z,19.93
2018-09-12T22:52:23.771Z,20.03
2018-09-12T22:57:07.140Z,20.11
2018-09-12T23:01:50.641Z,20.09
2018-09-12T23:06:33.929Z,19.92
2018-09-12T23:11:17.334Z,19.78
2018-09-12T23:16:00.787Z,19.84
2018-09-12T23:20:44.245Z,19.94
2018-09-12T23:25:28.940Z,19.75
2018-09-12T23:30:12.151Z,19.77
2018-09-12T23:34:58.827Z,19.69
2018-09-12T23:39:42.114Z,19.67
2018-09-12T23:44:29.285Z,19.70
2018-09-12T23:49:12.674Z,19.76
2018-09-12T23:53:56.043Z,19.71
2018-09-12T23:58:39.731Z,19.63
